Time;durP1;ratioP1;P1;durP2;ratioP2;P2;SDS_P1;SDS_P2;PMS_P1;PMS_P2;Temp;Humidity;BMP_temperature;BMP_pressure;BME280_temperature;BME280_humidity;BME280_pressure;Samples;Min_cycle;Max_cycle;Signal;HPM_P1;HPM_P2
2024/01/10 00:01:53;;;;;;;11.40;6.33;;;;;-5.50;102376.00;;;;9809629;30;20232;-83
2024/01/10 00:06:55;;;;;;;13.23;7.43;;;;;-5.60;102363.00;;;;9799783;30;20363;-82
2024/01/10 00:11:56;;;;;;;14.67;7.83;;;;;-5.50;102358.00;;;;9793213;30;20312;-82
2024/01/10 00:16:57;;;;;;;15.07;7.07;;;;;-5.50;102354.00;;;;9798267;30;20252;-82
2024/01/10 00:21:58;;;;;;;11.33;6.50;;;;;-5.50;102361.00;;;;9769924;30;20250;-82
2024/01/10 00:26:59;;;;;;;11.87;5.50;;;;;-5.50;102344.00;;;;9803724;30;20225;-83
2024/01/10 00:32:01;;;;;;;12.90;7.07;;;;;-5.50;102337.00;;;;9769581;30;20736;-83
2024/01/10 00:37:02;;;;;;;9.63;5.87;;;;;-5.60;102337.00;;;;9777228;30;20618;-82
2024/01/10 00:42:04;;;;;;;12.73;6.43;;;;;-5.60;102333.00;;;;9773530;30;20719;-82
2024/01/10 00:47:05;;;;;;;9.80;6.03;;;;;-5.70;102336.00;;;;9768843;30;20252;-82
2024/01/10 00:52:06;;;;;;;12.73;6.93;;;;;-5.80;102336.00;;;;9783051;30;20948;-83
2024/01/10 00:57:07;;;;;;;10.93;6.03;;;;;-5.90;102338.00;;;;9800252;30;20232;-83
2024/01/10 01:02:09;;;;;;;12.17;6.03;;;;;-5.90;102338.00;;;;9803629;30;20237;-82
2024/01/10 01:07:10;;;;;;;13.20;6.20;;;;;-6.00;102337.00;;;;9780201;30;20294;-82
2024/01/10 01:12:11;;;;;;;14.13;6.13;;;;;-6.20;102336.00;;;;9780759;30;20919;-83
2024/01/10 01:17:12;;;;;;;12.53;6.13;;;;;-6.30;102337.00;;;;9808107;30;20252;-82
2024/01/10 01:22:14;;;;;;;13.00;6.97;;;;;-6.40;102343.00;;;;9779700;30;20317;-83
2024/01/10 01:27:15;;;;;;;8.70;5.13;;;;;-6.50;102342.00;;;;9807828;30;20296;-83
2024/01/10 01:32:16;;;;;;;9.33;5.37;;;;;-6.60;102343.00;;;;9805010;30;20852;-83
2024/01/10 01:37:17;;;;;;;12.03;5.40;;;;;-6.70;102349.00;;;;9774313;30;20248;-83
2024/01/10 01:42:19;;;;;;;8.87;5.30;;;;;-6.80;102345.00;;;;9780014;30;20319;-83
2024/01/10 01:47:20;;;;;;;13.33;6.10;;;;;-6.90;102335.00;;;;9811911;30;20976;-83
2024/01/10 01:52:21;;;;;;;14.07;6.00;;;;;-7.00;102341.00;;;;9781499;30;20241;-82
2024/01/10 01:57:23;;;;;;;12.70;6.50;;;;;-7.10;102336.00;;;;9789826;30;20236;-82
2024/01/10 02:02:24;;;;;;;10.37;5.70;;;;;-7.20;102338.00;;;;9814186;30;20236;-84
2024/01/10 02:07:27;;;;;;;12.03;6.13;;;;;-7.20;102342.00;;;;9780173;30;20261;-84
2024/01/10 02:12:28;;;;;;;9.67;5.47;;;;;-7.30;102337.00;;;;9828537;29;20328;-84
2024/01/10 02:17:29;;;;;;;9.97;5.80;;;;;-7.40;102337.00;;;;9798300;30;20244;-84
2024/01/10 02:22:30;;;;;;;11.67;5.73;;;;;-7.40;102334.00;;;;9813848;30;20634;-84
2024/01/10 02:27:32;;;;;;;12.57;6.37;;;;;-7.40;102340.00;;;;9809562;30;20240;-85
2024/01/10 02:32:35;;;;;;;8.93;5.70;;;;;-7.40;102336.00;;;;9766746;30;20788;-84
2024/01/10 02:37:36;;;;;;;11.57;6.13;;;;;-7.40;102346.00;;;;9762730;30;20268;-84
2024/01/10 02:42:38;;;;;;;11.53;5.30;;;;;-7.40;102320.00;;;;9813165;30;20861;-84
2024/01/10 02:47:39;;;;;;;8.60;5.10;;;;;-7.50;102308.00;;;;9780540;30;20756;-84
2024/01/10 02:52:41;;;;;;;10.30;4.93;;;;;-7.60;102316.00;;;;9810029;30;20233;-84
2024/01/10 02:57:42;;;;;;;13.40;6.17;;;;;-7.60;102310.00;;;;9806906;30;20332;-84
2024/01/10 03:02:43;;;;;;;10.20;5.10;;;;;-7.60;102320.00;;;;9785225;30;20224;-84
2024/01/10 03:07:44;;;;;;;10.30;5.37;;;;;-7.70;102313.00;;;;9810179;30;20245;-84
2024/01/10 03:12:46;;;;;;;12.90;6.27;;;;;-7.70;102302.00;;;;9792576;30;20233;-84
2024/01/10 03:17:47;;;;;;;7.50;4.63;;;;;-7.80;102296.00;;;;9766045;30;20287;-84
2024/01/10 03:22:48;;;;;;;12.77;6.37;;;;;-7.80;102289.00;;;;9795756;30;20718;-87
2024/01/10 03:27:50;;;;;;;11.57;5.47;;;;;-7.90;102300.00;;;;9791453;30;20236;-86
2024/01/10 03:32:51;;;;;;;13.93;5.43;;;;;-7.90;102283.00;;;;9813809;30;20241;-86
2024/01/10 03:37:52;;;;;;;8.83;5.17;;;;;-7.90;102264.00;;;;9820997;30;20639;-87
2024/01/10 03:42:54;;;;;;;14.83;6.27;;;;;-7.90;102273.00;;;;9779107;30;20236;-86
2024/01/10 03:47:55;;;;;;;12.50;5.60;;;;;-7.90;102260.00;;;;9810847;30;20264;-87
2024/01/10 03:52:56;;;;;;;11.30;5.90;;;;;-7.90;102270.00;;;;9820953;30;20271;-85
2024/01/10 03:57:57;;;;;;;11.33;5.80;;;;;-8.00;102259.00;;;;9819151;30;20252;-87
2024/01/10 04:02:59;;;;;;;11.77;5.87;;;;;-8.00;102248.00;;;;9784994;30;20223;-86
2024/01/10 04:08:01;;;;;;;11.50;6.13;;;;;-8.00;102250.00;;;;9802844;30;20286;-87
2024/01/10 04:13:02;;;;;;;14.57;7.30;;;;;-8.00;102246.00;;;;9790332;30;20697;-87
2024/01/10 04:18:03;;;;;;;10.70;5.67;;;;;-7.90;102250.00;;;;9789244;30;20233;-86
2024/01/10 04:23:05;;;;;;;11.77;5.83;;;;;-7.90;102244.00;;;;9809210;30;20697;-87
2024/01/10 04:28:06;;;;;;;11.53;6.17;;;;;-7.80;102243.00;;;;9779529;30;20296;-87
2024/01/10 04:33:07;;;;;;;16.13;8.37;;;;;-7.80;102252.00;;;;9781443;30;20726;-81
2024/01/10 04:38:09;;;;;;;11.07;6.87;;;;;-7.80;102244.00;;;;9790231;30;20319;-83
2024/01/10 04:43:10;;;;;;;13.97;6.77;;;;;-7.70;102243.00;;;;9790552;30;20233;-83
2024/01/10 04:48:11;;;;;;;10.73;6.23;;;;;-7.70;102239.00;;;;9810784;30;20233;-82
2024/01/10 04:53:13;;;;;;;12.17;5.70;;;;;-7.70;102229.00;;;;9796612;30;20236;-82
2024/01/10 04:58:14;;;;;;;16.70;7.13;;;;;-7.70;102244.00;;;;9806894;30;20240;-82
2024/01/10 05:03:15;;;;;;;13.90;7.27;;;;;-7.70;102241.00;;;;9780017;30;20229;-82
2024/01/10 05:08:20;;;;;;;14.47;7.47;;;;;-7.70;102238.00;;;;9807283;30;20282;-82
2024/01/10 05:13:21;;;;;;;14.80;6.53;;;;;-7.70;102245.00;;;;9771135;30;20316;-82
2024/01/10 05:18:22;;;;;;;14.83;6.83;;;;;-7.70;102237.00;;;;9802292;30;20232;-82
2024/01/10 05:23:23;;;;;;;12.03;6.83;;;;;-7.70;102242.00;;;;9807446;30;20793;-83
2024/01/10 05:28:25;;;;;;;13.40;6.37;;;;;-7.70;102238.00;;;;9810126;30;20264;-82
2024/01/10 05:33:26;;;;;;;11.77;6.20;;;;;-7.60;102245.00;;;;9805976;30;20236;-83
2024/01/10 05:38:27;;;;;;;13.47;6.67;;;;;-7.50;102231.00;;;;9779668;30;20243;-82
2024/01/10 05:43:28;;;;;;;12.77;6.90;;;;;-7.50;102238.00;;;;9784272;30;20251;-87
2024/01/10 05:48:30;;;;;;;12.77;7.00;;;;;-7.50;102241.00;;;;9805354;30;20244;-86
2024/01/10 05:53:32;;;;;;;11.47;6.40;;;;;-7.40;102231.00;;;;9774806;30;20260;-86
2024/01/10 05:58:34;;;;;;;12.93;6.37;;;;;-7.40;102233.00;;;;9776042;30;20244;-86
2024/01/10 06:03:35;;;;;;;16.00;7.10;;;;;-7.50;102219.00;;;;9793153;30;20696;-87
2024/01/10 06:08:36;;;;;;;11.70;6.40;;;;;-7.50;102225.00;;;;9778510;30;20305;-84
2024/01/10 06:13:38;;;;;;;12.40;6.90;;;;;-7.60;102219.00;;;;9784940;30;20237;-85
2024/01/10 06:18:54;;;;;;;11.73;6.57;;;;;-7.50;102223.00;;;;9817589;30;20726;-84
2024/01/10 06:23:56;;;;;;;13.90;7.03;;;;;-7.50;102225.00;;;;9807897;30;20239;-85
2024/01/10 06:28:57;;;;;;;11.97;5.87;;;;;-7.50;102223.00;;;;9806205;30;20267;-85
2024/01/10 06:33:59;;;;;;;14.23;6.43;;;;;-7.60;102219.00;;;;9784841;30;20228;-85
2024/01/10 06:39:01;;;;;;;8.83;5.27;;;;;-7.60;102222.00;;;;9799901;30;20306;-86
2024/01/10 06:44:04;;;;;;;13.53;6.47;;;;;-7.60;102216.00;;;;9778981;30;20688;-85
2024/01/10 06:49:07;;;;;;;11.17;5.77;;;;;-7.60;102220.00;;;;9807950;30;20366;-85
2024/01/10 06:54:08;;;;;;;12.13;6.33;;;;;-7.60;102227.00;;;;9825048;30;20290;-84
2024/01/10 06:59:09;;;;;;;14.63;6.80;;;;;-7.60;102221.00;;;;9800690;30;20236;-85
2024/01/10 07:04:11;;;;;;;12.33;7.10;;;;;-7.50;102218.00;;;;9787412;30;20239;-85
2024/01/10 07:09:12;;;;;;;10.40;6.47;;;;;-7.50;102213.00;;;;9810846;30;20245;-85
2024/01/10 07:14:14;;;;;;;13.53;7.53;;;;;-7.50;102220.00;;;;9790042;30;20244;-86
2024/01/10 07:19:15;;;;;;;16.93;9.00;;;;;-7.50;102218.00;;;;9785659;30;21139;-85
2024/01/10 07:24:17;;;;;;;20.67;9.30;;;;;-7.50;102219.00;;;;9784635;30;20259;-85
2024/01/10 07:29:19;;;;;;;18.00;8.23;;;;;-7.50;102214.00;;;;9782095;30;20241;-84
2024/01/10 07:34:21;;;;;;;19.27;9.00;;;;;-7.50;102208.00;;;;9787353;30;20244;-86
2024/01/10 07:39:22;;;;;;;13.07;7.53;;;;;-7.40;102226.00;;;;9804644;30;20243;-86
2024/01/10 07:44:24;;;;;;;16.20;9.17;;;;;-7.40;102247.00;;;;9786772;30;20242;-85
2024/01/10 07:49:26;;;;;;;16.83;7.33;;;;;-7.30;102235.00;;;;9820023;30;20225;-84
2024/01/10 07:54:27;;;;;;;16.53;8.00;;;;;-7.20;102237.00;;;;9793026;30;20241;-85
2024/01/10 07:59:28;;;;;;;12.93;6.93;;;;;-7.10;102239.00;;;;9795836;30;20306;-83
2024/01/10 08:04:30;;;;;;;14.70;7.27;;;;;-7.10;102249.00;;;;9799774;30;20240;-83
2024/01/10 08:09:31;;;;;;;13.53;7.37;;;;;-7.10;102247.00;;;;9783494;30;20559;-82
2024/01/10 08:14:32;;;;;;;17.37;8.37;;;;;-7.00;102249.00;;;;9773526;30;20236;-82
2024/01/10 08:19:33;;;;;;;11.87;6.00;;;;;-6.90;102270.00;;;;9791527;30;20236;-81
2024/01/10 08:24:34;;;;;;;14.13;6.83;;;;;-6.70;102265.00;;;;9810376;30;20280;-82
2024/01/10 08:29:36;;;;;;;14.77;6.47;;;;;-6.50;102260.00;;;;9804582;30;20874;-82
2024/01/10 08:34:37;;;;;;;12.27;7.47;;;;;-6.30;102253.00;;;;9790937;30;20232;-82
2024/01/10 08:39:38;;;;;;;15.40;7.43;;;;;-6.20;102251.00;;;;9764137;30;20358;-81
2024/01/10 08:44:39;;;;;;;15.30;7.50;;;;;-6.00;102240.00;;;;9809573;30;20375;-82
2024/01/10 08:49:41;;;;;;;15.67;7.23;;;;;-5.80;102245.00;;;;9791435;30;20294;-81
2024/01/10 08:54:42;;;;;;;12.33;7.23;;;;;-5.60;102251.00;;;;9773760;30;20283;-81
2024/01/10 08:59:44;;;;;;;13.47;6.43;;;;;-5.40;102254.00;;;;9775423;30;20683;-81
2024/01/10 09:04:45;;;;;;;12.47;7.40;;;;;-5.10;102248.00;;;;9766442;30;20256;-81
2024/01/10 09:09:46;;;;;;;10.57;7.07;;;;;-4.50;102260.00;;;;9776513;30;20237;-83
2024/01/10 09:14:47;;;;;;;14.13;8.00;;;;;-4.00;102249.00;;;;9800882;30;20282;-83
2024/01/10 09:19:49;;;;;;;11.37;7.33;;;;;-3.50;102253.00;;;;9811288;30;20917;-83
2024/01/10 09:24:50;;;;;;;14.00;7.57;;;;;-3.20;102257.00;;;;9807690;30;20236;-82
2024/01/10 09:29:52;;;;;;;18.03;8.03;;;;;-2.90;102259.00;;;;9804687;30;20229;-81
2024/01/10 09:34:53;;;;;;;12.37;7.70;;;;;-2.70;102267.00;;;;9773933;30;20863;-82
2024/01/10 09:39:54;;;;;;;13.27;7.33;;;;;-2.60;102267.00;;;;9780344;30;20952;-82
2024/01/10 09:44:55;;;;;;;18.03;9.23;;;;;-2.50;102254.00;;;;9808629;30;20239;-80
2024/01/10 09:49:57;;;;;;;13.47;8.37;;;;;-2.40;102258.00;;;;9786584;30;20240;-81
2024/01/10 09:55:00;;;;;;;17.13;7.90;;;;;-2.20;102248.00;;;;9780414;30;20327;-84
2024/01/10 10:00:04;;;;;;;15.57;8.20;;;;;-2.00;102253.00;;;;9801287;30;20232;-82
2024/01/10 10:05:12;;;;;;;15.87;9.07;;;;;-1.70;102245.00;;;;9787945;30;20233;-82
2024/01/10 10:10:15;;;;;;;13.27;8.67;;;;;-1.50;102256.00;;;;9773613;30;20780;-80
2024/01/10 10:15:21;;;;;;;16.97;9.00;;;;;-1.30;102253.00;;;;9774733;30;20259;-81
2024/01/10 10:20:25;;;;;;;15.17;8.40;;;;;-1.10;102257.00;;;;9790972;30;20244;-85
2024/01/10 10:25:34;;;;;;;15.53;8.43;;;;;-0.90;102261.00;;;;9802975;30;20224;-85
2024/01/10 10:30:35;;;;;;;14.17;8.30;;;;;-0.70;102268.00;;;;9806354;30;20600;-85
2024/01/10 10:35:37;;;;;;;19.77;9.17;;;;;-0.50;102269.00;;;;9804704;30;20770;-84
2024/01/10 10:40:43;;;;;;;16.33;8.67;;;;;-0.40;102262.00;;;;9802052;30;20248;-84
2024/01/10 10:45:48;;;;;;;22.07;11.27;;;;;-0.10;102249.00;;;;9801378;30;20263;-85
2024/01/10 10:51:08;;;;;;;17.40;9.07;;;;;0.20;102258.00;;;;9838238;30;20243;-84
2024/01/10 10:56:10;;;;;;;16.77;9.03;;;;;0.30;102256.00;;;;9808663;30;20236;-86
2024/01/10 11:01:13;;;;;;;17.13;10.63;;;;;0.40;102238.00;;;;9788003;30;20316;-86
2024/01/10 11:06:17;;;;;;;15.90;8.53;;;;;0.40;102244.00;;;;9813907;30;20256;-85
2024/01/10 11:11:43;;;;;;;18.17;9.57;;;;;0.70;102235.00;;;;9812614;30;20245;-84
2024/01/10 11:17:04;;;;;;;16.27;9.30;;;;;0.90;102219.00;;;;9778978;30;20247;-85
2024/01/10 11:22:30;;;;;;;16.33;10.13;;;;;0.90;102225.00;;;;9783708;30;20252;-86
2024/01/10 11:27:31;;;;;;;12.93;8.27;;;;;1.00;102221.00;;;;9781070;30;20236;-84
2024/01/10 11:32:35;;;;;;;17.97;9.83;;;;;1.00;102216.00;;;;9768466;30;20258;-85
2024/01/10 11:37:43;;;;;;;15.40;9.10;;;;;0.80;102207.00;;;;9789762;30;20240;-84
2024/01/10 11:42:46;;;;;;;13.43;8.40;;;;;0.90;102198.00;;;;9775027;30;20224;-87
2024/01/10 11:47:50;;;;;;;14.00;8.67;;;;;1.00;102196.00;;;;9808435;30;20224;-86
2024/01/10 11:52:54;;;;;;;13.07;8.87;;;;;1.00;102198.00;;;;9803388;30;20588;-85
2024/01/10 11:58:09;;;;;;;16.33;9.43;;;;;0.60;102199.00;;;;9782197;30;20790;-86
2024/01/10 12:03:14;;;;;;;14.93;9.50;;;;;1.10;102177.00;;;;9798890;30;20236;-85
2024/01/10 12:08:15;;;;;;;15.00;9.27;;;;;1.20;102180.00;;;;9789098;30;20241;-84
2024/01/10 12:13:22;;;;;;;15.43;9.17;;;;;1.20;102189.00;;;;9776727;30;20225;-87
2024/01/10 12:18:26;;;;;;;15.70;9.40;;;;;1.40;102183.00;;;;9908184;24;20243;-86
2024/01/10 12:23:31;;;;;;;16.20;9.30;;;;;0.80;102170.00;;;;9831969;29;20319;-87
2024/01/10 12:28:33;;;;;;;16.90;9.90;;;;;1.20;102167.00;;;;9844114;29;20258;-87
2024/01/10 12:33:39;;;;;;;19.07;10.07;;;;;1.10;102167.00;;;;10004323;24;20244;-86
2024/01/10 12:38:40;;;;;;;16.43;9.70;;;;;1.20;102174.00;;;;9852553;29;20280;-88
2024/01/10 12:43:42;;;;;;;19.47;9.83;;;;;1.30;102160.00;;;;9841969;29;20235;-84
2024/01/10 12:48:44;;;;;;;17.83;9.30;;;;;1.20;102172.00;;;;9842358;29;20246;-85
2024/01/10 12:53:45;;;;;;;17.10;10.10;;;;;1.00;102175.00;;;;9836966;29;20349;-85
2024/01/10 12:58:47;;;;;;;14.97;8.97;;;;;0.50;102167.00;;;;9792923;29;21053;-84
2024/01/10 13:03:52;;;;;;;17.97;9.87;;;;;0.30;102174.00;;;;9785003;30;20232;-84
2024/01/10 13:08:54;;;;;;;16.53;10.13;;;;;0.70;102166.00;;;;9766005;30;20232;-85
2024/01/10 13:13:55;;;;;;;16.33;9.30;;;;;1.10;102168.00;;;;9779701;30;20901;-84
2024/01/10 13:18:58;;;;;;;18.73;9.83;;;;;1.20;102153.00;;;;9766516;29;20237;-83
2024/01/10 13:24:00;;;;;;;16.80;9.90;;;;;1.10;102152.00;;;;9798091;30;20299;-83
2024/01/10 13:29:02;;;;;;;17.63;9.60;;;;;1.20;102157.00;;;;9785038;30;20288;-83
2024/01/10 13:34:04;;;;;;;18.43;10.03;;;;;1.20;102156.00;;;;9787571;30;20320;-83
2024/01/10 13:39:06;;;;;;;16.10;9.07;;;;;1.20;102164.00;;;;9780351;30;20275;-83
2024/01/10 13:44:09;;;;;;;16.23;10.13;;;;;1.10;102159.00;;;;9786438;30;20233;-83
2024/01/10 13:49:11;;;;;;;17.17;10.07;;;;;1.00;102168.00;;;;9776782;30;20305;-84
2024/01/10 13:54:12;;;;;;;18.80;10.90;;;;;0.90;102157.00;;;;9764117;30;20263;-83
2024/01/10 13:59:14;;;;;;;21.17;11.10;;;;;1.00;102157.00;;;;9769745;30;20240;-82
2024/01/10 14:04:15;;;;;;;17.33;10.73;;;;;1.00;102151.00;;;;9796832;29;20905;-82
2024/01/10 14:09:17;;;;;;;17.97;10.33;;;;;1.00;102161.00;;;;9776634;30;20264;-82
2024/01/10 14:14:18;;;;;;;19.03;10.37;;;;;0.90;102162.00;;;;9778592;30;20348;-82
2024/01/10 14:19:21;;;;;;;18.20;10.30;;;;;0.70;102175.00;;;;9803721;29;20241;-81
2024/01/10 14:24:23;;;;;;;18.13;10.20;;;;;0.50;102183.00;;;;9775119;29;20303;-80
2024/01/10 14:29:24;;;;;;;17.67;10.63;;;;;0.30;102185.00;;;;9786153;30;20263;-80
2024/01/10 14:34:25;;;;;;;16.10;10.23;;;;;0.20;102196.00;;;;9775085;30;20249;-79
2024/01/10 14:39:27;;;;;;;17.63;10.33;;;;;0.10;102187.00;;;;9807665;29;20233;-79
2024/01/10 14:44:28;;;;;;;19.20;9.23;;;;;0.00;102187.00;;;;9800004;29;20366;-80
2024/01/10 14:49:31;;;;;;;17.50;10.60;;;;;-0.10;102189.00;;;;9788381;30;20232;-80
2024/01/10 14:54:32;;;;;;;17.37;10.70;;;;;-0.20;102194.00;;;;9770929;30;20233;-79
2024/01/10 14:59:33;;;;;;;18.07;10.17;;;;;-0.30;102202.00;;;;9781726;30;20236;-79
2024/01/10 15:04:46;;;;;;;19.77;11.00;;;;;-0.30;102199.00;;;;9780480;30;20233;-80
2024/01/10 15:09:48;;;;;;;20.20;10.73;;;;;-0.40;102195.00;;;;9776871;30;20251;-84
2024/01/10 15:14:49;;;;;;;18.77;9.93;;;;;-0.50;102200.00;;;;9779121;30;21098;-84
2024/01/10 15:19:50;;;;;;;19.80;10.90;;;;;-0.50;102202.00;;;;9778202;30;20990;-85
2024/01/10 15:24:52;;;;;;;18.87;10.67;;;;;-0.60;102216.00;;;;9767447;30;20233;-84
2024/01/10 15:29:54;;;;;;;17.33;9.73;;;;;-0.80;102226.00;;;;9792789;30;20243;-85
2024/01/10 15:35:08;;;;;;;23.60;10.30;;;;;-0.90;102225.00;;;;9770203;30;20242;-85
2024/01/10 15:40:11;;;;;;;17.87;9.57;;;;;-1.00;102222.00;;;;9790457;30;20636;-85
2024/01/10 15:45:12;;;;;;;15.60;9.30;;;;;-1.10;102229.00;;;;9783835;29;20873;-83
2024/01/10 15:50:15;;;;;;;17.60;10.13;;;;;-1.20;102234.00;;;;9793107;30;20267;-85
2024/01/10 15:55:17;;;;;;;19.33;10.80;;;;;-1.30;102237.00;;;;9771571;30;20240;-85
2024/01/10 16:00:19;;;;;;;19.47;9.67;;;;;-1.50;102239.00;;;;9771599;30;20275;-85
2024/01/10 16:05:20;;;;;;;27.37;10.73;;;;;-1.70;102242.00;;;;9807157;30;21000;-86
2024/01/10 16:10:21;;;;;;;20.60;10.93;;;;;-1.80;102254.00;;;;9789092;30;20308;-88
2024/01/10 16:15:22;;;;;;;18.60;10.53;;;;;-2.00;102251.00;;;;9782853;30;20307;-84
2024/01/10 16:20:23;;;;;;;21.87;11.13;;;;;-2.00;102255.00;;;;9786384;30;20254;-87
2024/01/10 16:25:25;;;;;;;43.97;18.87;;;;;-2.10;102252.00;;;;9795626;29;20248;-88
2024/01/10 16:30:26;;;;;;;31.53;15.77;;;;;-2.10;102261.00;;;;9804031;30;20237;-86
2024/01/10 16:35:27;;;;;;;24.20;13.50;;;;;-2.30;102258.00;;;;9797021;30;20243;-85
2024/01/10 16:40:28;;;;;;;20.10;12.27;;;;;-2.40;102263.00;;;;9782769;30;20238;-87
2024/01/10 16:45:33;;;;;;;23.47;13.53;;;;;-2.50;102267.00;;;;9804270;30;20247;-86
2024/01/10 16:50:37;;;;;;;26.07;13.87;;;;;-2.60;102266.00;;;;9784749;30;20588;-84
2024/01/10 16:55:38;;;;;;;29.47;13.07;;;;;-2.70;102269.00;;;;9787536;30;20239;-87
2024/01/10 17:00:39;;;;;;;25.77;13.93;;;;;-2.70;102261.00;;;;9850168;30;20220;-84
2024/01/10 17:05:41;;;;;;;23.23;12.07;;;;;-2.80;102257.00;;;;9817086;30;20328;-85
2024/01/10 17:10:45;;;;;;;31.20;14.93;;;;;-2.90;102253.00;;;;9803078;30;20237;-87
2024/01/10 17:15:46;;;;;;;31.50;14.33;;;;;-2.90;102265.00;;;;9820686;30;20297;-85
2024/01/10 17:20:48;;;;;;;25.33;12.93;;;;;-2.90;102273.00;;;;9821974;30;20232;-85
2024/01/10 17:25:49;;;;;;;20.50;10.97;;;;;-2.90;102275.00;;;;9801584;30;20233;-87
2024/01/10 17:30:50;;;;;;;21.93;11.17;;;;;-2.90;102289.00;;;;9789530;30;20288;-86
2024/01/10 17:35:51;;;;;;;21.47;11.97;;;;;-2.90;102293.00;;;;9793888;29;20248;-85
2024/01/10 17:40:54;;;;;;;24.50;11.80;;;;;-3.00;102295.00;;;;9782253;29;20271;-86
2024/01/10 17:45:55;;;;;;;26.07;11.50;;;;;-3.10;102311.00;;;;9781316;30;20237;-85
2024/01/10 17:50:57;;;;;;;24.07;12.10;;;;;-3.20;102309.00;;;;9751217;30;20245;-84
2024/01/10 17:55:58;;;;;;;24.83;12.90;;;;;-3.30;102317.00;;;;9773013;29;20241;-85
2024/01/10 18:01:00;;;;;;;23.00;11.47;;;;;-3.50;102329.00;;;;9777250;30;20267;-85
2024/01/10 18:06:02;;;;;;;22.30;12.63;;;;;-3.60;102324.00;;;;9788006;29;20727;-84
2024/01/10 18:11:05;;;;;;;27.77;13.07;;;;;-3.70;102324.00;;;;9744403;30;20772;-84
2024/01/10 18:16:06;;;;;;;28.53;13.10;;;;;-3.80;102330.00;;;;9756760;30;20255;-84
2024/01/10 18:21:08;;;;;;;30.93;15.23;;;;;-3.90;102331.00;;;;9740850;30;21013;-84
2024/01/10 18:26:09;;;;;;;28.83;15.20;;;;;-4.00;102321.00;;;;9766745;30;20229;-83
2024/01/10 18:31:10;;;;;;;29.27;14.87;;;;;-4.00;102330.00;;;;9775497;30;21300;-83
2024/01/10 18:36:13;;;;;;;28.57;16.47;;;;;-4.00;102331.00;;;;9791912;29;20859;-84
2024/01/10 18:41:14;;;;;;;27.70;15.70;;;;;-3.90;102339.00;;;;9776385;30;20331;-80
2024/01/10 18:46:15;;;;;;;25.93;15.07;;;;;-3.90;102348.00;;;;9777673;30;20268;-80
2024/01/10 18:51:17;;;;;;;32.63;17.40;;;;;-3.90;102362.00;;;;9787512;30;20251;-78
2024/01/10 18:56:18;;;;;;;30.53;15.17;;;;;-4.00;102371.00;;;;9804083;29;20884;-80
2024/01/10 19:01:20;;;;;;;26.20;15.00;;;;;-4.00;102384.00;;;;9770753;30;20241;-80
2024/01/10 19:06:21;;;;;;;29.07;15.67;;;;;-4.10;102378.00;;;;9778353;30;20237;-80
2024/01/10 19:11:22;;;;;;;30.50;13.93;;;;;-4.20;102392.00;;;;9771474;30;20244;-80
2024/01/10 19:16:23;;;;;;;26.90;13.67;;;;;-4.20;102398.00;;;;9789262;30;20235;-82
2024/01/10 19:21:25;;;;;;;28.27;14.80;;;;;-4.20;102406.00;;;;9782262;30;20247;-81
2024/01/10 19:26:26;;;;;;;25.70;13.10;;;;;-4.30;102420.00;;;;9790301;29;20249;-82
2024/01/10 19:31:27;;;;;;;29.27;14.67;;;;;-4.40;102415.00;;;;9769924;30;20259;-80
2024/01/10 19:36:28;;;;;;;28.07;14.00;;;;;-4.60;102424.00;;;;9773169;30;20604;-81
2024/01/10 19:41:34;;;;;;;31.30;15.57;;;;;-4.70;102417.00;;;;9791940;29;20349;-81
2024/01/10 19:46:35;;;;;;;27.43;14.80;;;;;-4.80;102420.00;;;;9777140;30;20857;-82
2024/01/10 19:51:37;;;;;;;27.83;13.87;;;;;-4.80;102438.00;;;;9795770;30;20248;-86
2024/01/10 19:56:38;;;;;;;27.23;14.53;;;;;-4.80;102436.00;;;;9780876;30;20343;-85
2024/01/10 20:01:39;;;;;;;26.60;14.50;;;;;-4.90;102440.00;;;;9812103;30;20247;-83
2024/01/10 20:06:40;;;;;;;37.30;19.37;;;;;-5.00;102428.00;;;;9787509;30;20636;-84
2024/01/10 20:11:42;;;;;;;39.60;19.53;;;;;-5.00;102423.00;;;;9792919;30;20263;-85
2024/01/10 20:16:43;;;;;;;40.77;19.63;;;;;-5.10;102438.00;;;;9785799;29;20290;-84
2024/01/10 20:21:44;;;;;;;39.03;19.93;;;;;-5.10;102437.00;;;;9784177;30;20331;-83
2024/01/10 20:26:45;;;;;;;42.50;23.47;;;;;-5.20;102435.00;;;;9790308;29;20852;-84
2024/01/10 20:31:46;;;;;;;50.90;24.80;;;;;-5.10;102447.00;;;;9792172;30;20277;-84
2024/01/10 20:36:47;;;;;;;46.20;23.17;;;;;-5.00;102439.00;;;;9780951;30;20228;-83
2024/01/10 20:41:49;;;;;;;44.23;23.17;;;;;-5.00;102448.00;;;;9797005;30;20274;-84
2024/01/10 20:46:50;;;;;;;42.27;22.73;;;;;-5.00;102462.00;;;;9793832;30;20275;-83
2024/01/10 20:51:51;;;;;;;44.20;24.33;;;;;-5.00;102453.00;;;;9782067;30;20315;-84
2024/01/10 20:56:52;;;;;;;44.40;24.33;;;;;-5.00;102444.00;;;;9795172;29;20238;-85
2024/01/10 21:01:53;;;;;;;47.37;26.37;;;;;-5.00;102453.00;;;;9777519;30;20911;-84
2024/01/10 21:06:58;;;;;;;53.60;25.97;;;;;-5.00;102457.00;;;;9789725;29;20783;-84
2024/01/10 21:12:14;;;;;;;57.90;27.37;;;;;-5.10;102457.00;;;;9775626;30;20233;-83
2024/01/10 21:17:15;;;;;;;55.03;28.57;;;;;-5.00;102457.00;;;;9767189;30;20740;-84
2024/01/10 21:22:17;;;;;;;58.00;27.67;;;;;-5.10;102452.00;;;;9776608;30;20247;-83
2024/01/10 21:27:18;;;;;;;53.80;25.70;;;;;-5.10;102462.00;;;;9796322;30;20979;-84
2024/01/10 21:32:20;;;;;;;48.17;25.07;;;;;-5.20;102458.00;;;;9772564;30;20250;-83
2024/01/10 21:37:21;;;;;;;53.47;26.77;;;;;-5.20;102452.00;;;;9794078;30;20248;-84
2024/01/10 21:42:23;;;;;;;51.30;24.80;;;;;-5.30;102470.00;;;;9804154;30;20232;-83
2024/01/10 21:47:31;;;;;;;47.80;24.60;;;;;-5.30;102474.00;;;;9779455;29;20312;-84
2024/01/10 21:52:32;;;;;;;50.03;23.50;;;;;-5.40;102473.00;;;;9761865;30;20233;-83
2024/01/10 21:57:33;;;;;;;43.20;21.70;;;;;-5.50;102468.00;;;;9772393;30;20252;-83
2024/01/10 22:02:34;;;;;;;39.83;20.93;;;;;-5.50;102478.00;;;;9797544;30;20245;-84
2024/01/10 22:07:38;;;;;;;45.37;22.50;;;;;-5.60;102485.00;;;;9785815;30;20295;-83
2024/01/10 22:12:39;;;;;;;44.43;22.70;;;;;-5.60;102491.00;;;;9761805;30;20232;-82
2024/01/10 22:17:40;;;;;;;45.43;24.03;;;;;-5.70;102497.00;;;;9799496;30;20265;-81
2024/01/10 22:22:42;;;;;;;52.17;23.07;;;;;-5.70;102507.00;;;;9785504;30;20247;-83
2024/01/10 22:27:46;;;;;;;42.90;20.77;;;;;-5.80;102508.00;;;;9777075;30;20243;-82
2024/01/10 22:32:47;;;;;;;35.33;17.87;;;;;-5.80;102495.00;;;;9794218;29;20232;-81
2024/01/10 22:37:49;;;;;;;43.87;20.30;;;;;-5.90;102508.00;;;;9777898;30;20237;-82
2024/01/10 22:42:52;;;;;;;43.03;22.40;;;;;-5.80;102506.00;;;;9805880;30;20236;-83
2024/01/10 22:47:53;;;;;;;47.67;21.97;;;;;-5.80;102511.00;;;;9787357;30;20246;-82
2024/01/10 22:52:55;;;;;;;43.67;21.43;;;;;-5.80;102505.00;;;;9787822;30;20241;-82
2024/01/10 22:57:57;;;;;;;52.57;22.33;;;;;-5.90;102512.00;;;;9803825;29;20268;-81
2024/01/10 23:02:58;;;;;;;46.80;22.50;;;;;-5.80;102521.00;;;;9786893;30;20320;-82
2024/01/10 23:07:59;;;;;;;47.83;23.00;;;;;-5.90;102523.00;;;;9782825;30;20241;-82
2024/01/10 23:13:02;;;;;;;44.07;23.17;;;;;-5.90;102522.00;;;;9797685;30;20250;-82
2024/01/10 23:18:03;;;;;;;44.90;22.93;;;;;-6.00;102526.00;;;;9766343;30;20236;-82
2024/01/10 23:23:05;;;;;;;47.33;23.47;;;;;-6.00;102529.00;;;;9769221;30;20240;-84
2024/01/10 23:28:07;;;;;;;45.77;22.07;;;;;-6.00;102528.00;;;;9800841;30;20235;-83
2024/01/10 23:33:09;;;;;;;44.03;22.23;;;;;-6.00;102540.00;;;;9771428;29;20278;-83
2024/01/10 23:38:10;;;;;;;42.90;21.87;;;;;-6.10;102537.00;;;;9786463;29;20228;-84
2024/01/10 23:43:12;;;;;;;40.90;20.90;;;;;-6.10;102531.00;;;;9765100;30;20233;-83
2024/01/10 23:48:31;;;;;;;40.43;21.10;;;;;-6.10;102536.00;;;;9797021;30;20244;-83
2024/01/10 23:53:32;;;;;;;43.87;21.40;;;;;-6.10;102535.00;;;;9796032;29;20244;-84
2024/01/10 23:58:34;;;;;;;42.50;19.87;;;;;-6.00;102546.00;;;;9771469;30;20798;-84
